Ancora, New Jersey
Current Conditions -  °F | °C
As of 5:54 AM on Sunday 23 Nov 2014 (Local Time) from KACY Reporting Station
Broken Clouds Broken Clouds  
Wind Chill: 36°   Ceiling: 11000
Heat Index: 40°   Visibility: 10mi
Dew Point: 27°   Wind: 6mph
Humidity: 60%   Direction: 220°SW
Pressure: 30.23"   Gusts: NA
Location:  39.637°N, 74.7602°W
Report Text: KACY 231054Z 22005KT 10SM BKN110 04/M03 A3023 RMK AO2 SLP239 T00441028
Loading
Personal Weather Stations






























Interactive Weather Map New forecast layout! Learn more

10-Day Weather Forecast

Advertisements
Track Severe Weather on mobile